createdAt,value
2022-11-14T00:00:11.109Z,1001.95
2022-11-14T00:01:11.161Z,1001.92
2022-11-14T00:02:11.150Z,1001.93
2022-11-14T00:03:11.118Z,1001.93
2022-11-14T00:04:11.161Z,1001.89
2022-11-14T00:05:11.086Z,1001.93
2022-11-14T00:06:11.054Z,1001.93
2022-11-14T00:07:11.127Z,1001.82
2022-11-14T00:08:11.040Z,1001.78
2022-11-14T00:09:11.030Z,1001.81
2022-11-14T00:10:11.058Z,1001.86
2022-11-14T00:11:11.042Z,1001.86
2022-11-14T00:12:11.025Z,1001.72
2022-11-14T00:13:11.005Z,1001.77
2022-11-14T00:14:11.033Z,1001.78
2022-11-14T00:15:10.977Z,1001.79
2022-11-14T00:16:10.983Z,1001.72
2022-11-14T00:17:11.069Z,1001.72
2022-11-14T00:18:10.991Z,1001.71
2022-11-14T00:19:11.873Z,1001.72
2022-11-14T00:20:10.956Z,1001.79
2022-11-14T00:21:10.947Z,1001.72
2022-11-14T00:22:10.935Z,1001.75
2022-11-14T00:23:10.919Z,1001.75
2022-11-14T00:24:10.925Z,1001.74
2022-11-14T00:25:10.920Z,1001.63
2022-11-14T00:26:11.969Z,1001.68
2022-11-14T00:27:10.879Z,1001.71
2022-11-14T00:28:10.912Z,1001.63
2022-11-14T00:29:10.872Z,1001.63
2022-11-14T00:30:10.873Z,1001.68
2022-11-14T00:31:10.853Z,1001.63
2022-11-14T00:32:10.888Z,1001.64
2022-11-14T00:33:13.651Z,1001.61
2022-11-14T00:34:11.849Z,1001.64
2022-11-14T00:35:10.839Z,1001.63
2022-11-14T00:36:10.822Z,1001.63
2022-11-14T00:37:10.837Z,1001.60
2022-11-14T00:38:10.794Z,1001.61
2022-11-14T00:39:10.796Z,1001.61
2022-11-14T00:40:10.799Z,1001.67
2022-11-14T00:41:10.783Z,1001.55
2022-11-14T00:42:10.774Z,1001.61
2022-11-14T00:43:10.777Z,1001.58
2022-11-14T00:44:10.775Z,1001.55
2022-11-14T00:45:10.849Z,1001.52
2022-11-14T00:46:10.771Z,1001.54
2022-11-14T00:47:10.752Z,1001.55
2022-11-14T00:48:10.724Z,1001.55
2022-11-14T00:49:10.854Z,1001.51
2022-11-14T00:50:10.708Z,1001.41
2022-11-14T00:51:10.704Z,1001.44
2022-11-14T00:52:10.714Z,1001.46
2022-11-14T00:53:10.691Z,1001.44
2022-11-14T00:54:10.687Z,1001.43
2022-11-14T00:55:10.690Z,1001.49
2022-11-14T00:56:10.658Z,1001.43
2022-11-14T00:57:10.720Z,1001.38
2022-11-14T00:58:10.685Z,1001.40
2022-11-14T00:59:10.673Z,1001.41
2022-11-14T01:00:10.735Z,1001.40
2022-11-14T01:01:10.673Z,1001.39
2022-11-14T01:02:10.595Z,1001.38
2022-11-14T01:03:10.645Z,1001.36
2022-11-14T01:04:10.613Z,1001.35
2022-11-14T01:05:10.724Z,1001.39
2022-11-14T01:06:10.581Z,1001.37
2022-11-14T01:07:10.573Z,1001.34
2022-11-14T01:08:10.596Z,1001.36
2022-11-14T01:09:10.770Z,1001.37
2022-11-14T01:10:10.566Z,1001.33
2022-11-14T01:11:10.591Z,1001.39
2022-11-14T01:12:10.557Z,1001.36
2022-11-14T01:13:10.549Z,1001.33
2022-11-14T01:14:10.525Z,1001.34
2022-11-14T01:15:10.521Z,1001.38
2022-11-14T01:16:10.531Z,1001.31
2022-11-14T01:17:10.510Z,1001.32
2022-11-14T01:18:10.495Z,1001.36
2022-11-14T01:19:10.488Z,1001.36
2022-11-14T01:20:10.486Z,1001.42
2022-11-14T01:21:10.596Z,1001.34
2022-11-14T01:22:10.479Z,1001.35
2022-11-14T01:23:10.498Z,1001.26
2022-11-14T01:24:10.514Z,1001.34
2022-11-14T01:25:10.458Z,1001.28
2022-11-14T01:26:10.434Z,1001.33
2022-11-14T01:27:10.505Z,1001.30
2022-11-14T01:28:10.430Z,1001.30
2022-11-14T01:29:10.482Z,1001.18
2022-11-14T01:30:10.413Z,1001.22
2022-11-14T01:31:10.457Z,1001.22
2022-11-14T01:32:10.386Z,1001.25
2022-11-14T01:33:10.402Z,1001.23
2022-11-14T01:34:10.364Z,1001.24
2022-11-14T01:35:10.363Z,1001.19
2022-11-14T01:36:10.391Z,1001.21
2022-11-14T01:37:10.448Z,1001.18
2022-11-14T01:38:10.370Z,1001.19
2022-11-14T01:39:10.351Z,1001.12
2022-11-14T01:40:10.337Z,1001.18
2022-11-14T01:41:10.323Z,1001.18
2022-11-14T01:42:10.360Z,1001.08
2022-11-14T01:43:10.446Z,1001.11
2022-11-14T01:44:10.332Z,1001.11
2022-11-14T02:01:08.944Z,1000.91
2022-11-14T02:01:57.245Z,1000.83
2022-11-14T02:02:56.982Z,1000.75
2022-11-14T02:03:56.950Z,1000.78
2022-11-14T02:04:56.987Z,1000.80
2022-11-14T02:05:56.981Z,1000.86
2022-11-14T02:06:56.949Z,1000.79
2022-11-14T02:07:56.970Z,1000.81
2022-11-14T02:08:56.934Z,1000.76
2022-11-14T02:09:56.920Z,1000.76
2022-11-14T02:10:56.986Z,1000.74
2022-11-14T02:12:28.761Z,1000.70
2022-11-14T02:12:56.836Z,1000.75
2022-11-14T02:13:56.831Z,1000.68
2022-11-14T02:15:28.737Z,1000.67
2022-11-14T02:15:56.800Z,1000.66
2022-11-14T02:17:22.660Z,1000.64
2022-11-14T02:17:58.784Z,1000.61
2022-11-14T02:18:56.813Z,1000.58
2022-11-14T02:20:00.805Z,1000.60
2022-11-14T02:20:57.770Z,1000.53
2022-11-14T02:21:56.780Z,1000.61
2022-11-14T02:22:56.760Z,1000.62
2022-11-14T02:23:56.753Z,1000.49
2022-11-14T02:24:56.734Z,1000.50
2022-11-14T02:25:56.750Z,1000.49
2022-11-14T02:26:56.744Z,1000.56
2022-11-14T02:27:56.715Z,1000.54
2022-11-14T02:28:56.760Z,1000.49
2022-11-14T02:29:56.704Z,1000.52
2022-11-14T02:30:57.705Z,1000.48
2022-11-14T02:31:56.692Z,1000.48
2022-11-14T02:33:10.417Z,1000.50
2022-11-14T02:33:59.413Z,1000.42
2022-11-14T02:34:56.671Z,1000.45
2022-11-14T02:35:56.725Z,1000.42
2022-11-14T02:36:56.664Z,1000.46
2022-11-14T02:37:56.631Z,1000.40
2022-11-14T02:38:56.625Z,1000.38
2022-11-14T02:39:56.613Z,1000.36
2022-11-14T02:40:56.655Z,1000.36
2022-11-14T02:41:56.647Z,1000.35
2022-11-14T02:42:56.594Z,1000.31
2022-11-14T02:43:56.584Z,1000.27
2022-11-14T02:44:56.609Z,1000.29
2022-11-14T02:45:59.179Z,1000.29
2022-11-14T02:46:57.589Z,1000.30
2022-11-14T02:47:56.584Z,1000.26
2022-11-14T02:48:56.680Z,1000.32
2022-11-14T02:49:56.558Z,1000.24
2022-11-14T02:50:57.572Z,1000.31
2022-11-14T02:51:56.551Z,1000.29
2022-11-14T02:52:56.540Z,1000.29
2022-11-14T02:53:57.412Z,1000.25
2022-11-14T02:54:56.516Z,1000.21
2022-11-14T02:55:56.546Z,1000.25
2022-11-14T02:56:56.502Z,1000.21
2022-11-14T02:57:56.474Z,1000.22
2022-11-14T02:58:56.508Z,1000.20
2022-11-14T02:59:56.505Z,1000.28
2022-11-14T03:01:19.106Z,1000.28
2022-11-14T03:01:58.536Z,1000.26
2022-11-14T03:02:57.380Z,1000.26
2022-11-14T03:03:56.435Z,1000.24
2022-11-14T03:04:56.566Z,1000.19
2022-11-14T03:05:57.376Z,1000.18
2022-11-14T03:06:56.498Z,1000.21
2022-11-14T03:07:56.447Z,1000.21
2022-11-14T03:08:56.408Z,1000.17
2022-11-14T03:09:56.397Z,1000.15
2022-11-14T03:10:56.504Z,1000.16
2022-11-14T03:11:56.419Z,1000.12
2022-11-14T03:12:56.496Z,1000.10
2022-11-14T03:13:56.415Z,1000.18
2022-11-14T03:14:56.390Z,1000.14
2022-11-14T03:15:56.389Z,1000.15
2022-11-14T03:16:56.361Z,1000.06
2022-11-14T03:17:56.377Z,1000.05
2022-11-14T03:18:56.351Z,1000.06
2022-11-14T03:19:56.316Z,1000.09
2022-11-14T03:20:56.393Z,1000.00
2022-11-14T03:21:56.313Z,1000.02
2022-11-14T03:22:56.374Z,1000.06
2022-11-14T03:23:56.311Z,999.91
2022-11-14T03:24:56.329Z,999.95
2022-11-14T03:25:56.272Z,999.95
2022-11-14T03:26:56.290Z,999.90
2022-11-14T03:27:56.303Z,999.89
2022-11-14T03:28:56.257Z,999.90
2022-11-14T03:29:56.265Z,999.90
2022-11-14T03:30:56.253Z,999.94
2022-11-14T03:31:56.282Z,999.89
2022-11-14T03:32:56.229Z,999.90
2022-11-14T03:33:56.227Z,999.86
2022-11-14T03:34:56.224Z,999.85
2022-11-14T03:35:56.201Z,999.90
2022-11-14T03:36:56.267Z,999.93
2022-11-14T03:37:56.721Z,999.98
2022-11-14T03:38:57.167Z,999.95
2022-11-14T03:39:56.189Z,999.94
2022-11-14T03:40:56.177Z,999.90
2022-11-14T03:41:56.162Z,999.91
2022-11-14T03:42:56.213Z,999.93
2022-11-14T03:43:56.170Z,999.85
2022-11-14T03:44:56.176Z,999.89
2022-11-14T03:45:56.125Z,999.88
2022-11-14T03:46:56.112Z,999.87
2022-11-14T04:02:55.114Z,999.93
2022-11-14T04:03:55.017Z,999.90
2022-11-14T04:04:54.996Z,999.87
2022-11-14T04:05:56.104Z,999.83
2022-11-14T04:06:56.203Z,999.81
2022-11-14T04:07:56.119Z,999.83
2022-11-14T04:08:56.101Z,999.75
2022-11-14T04:09:56.120Z,999.75
2022-11-14T04:10:56.091Z,999.76
2022-11-14T04:11:56.073Z,999.80
2022-11-14T04:12:56.065Z,999.74
2022-11-14T04:13:56.261Z,999.74
2022-11-14T04:14:56.052Z,999.69
2022-11-14T04:15:56.052Z,999.73
2022-11-14T04:16:56.063Z,999.74
2022-11-14T04:17:56.027Z,999.72
2022-11-14T04:18:56.126Z,999.70
2022-11-14T04:19:56.011Z,999.72
2022-11-14T04:20:56.023Z,999.75
2022-11-14T04:21:55.994Z,999.74
2022-11-14T04:22:55.987Z,999.71
2022-11-14T04:23:55.999Z,999.67
2022-11-14T04:24:55.999Z,999.71
2022-11-14T04:25:55.985Z,999.69
2022-11-14T04:26:55.961Z,999.68
2022-11-14T04:27:55.962Z,999.68
2022-11-14T04:28:55.939Z,999.67
2022-11-14T04:29:55.949Z,999.65
2022-11-14T04:30:55.921Z,999.59
2022-11-14T04:31:55.911Z,999.65
2022-11-14T04:32:56.908Z,999.63
2022-11-14T04:33:55.952Z,999.60
2022-11-14T04:34:56.001Z,999.57
2022-11-14T04:35:55.907Z,999.56
2022-11-14T04:36:55.882Z,999.54
2022-11-14T04:37:55.884Z,999.45
2022-11-14T04:38:56.728Z,999.44
2022-11-14T04:39:55.879Z,999.49
2022-11-14T04:40:55.909Z,999.55
2022-11-14T04:41:55.873Z,999.45
2022-11-14T04:42:55.845Z,999.39
2022-11-14T04:43:55.840Z,999.43
2022-11-14T04:44:55.890Z,999.44
2022-11-14T04:45:55.930Z,999.44
2022-11-14T04:46:55.861Z,999.51
2022-11-14T04:47:55.799Z,999.47
2022-11-14T04:48:55.794Z,999.47
2022-11-14T04:49:55.800Z,999.46
2022-11-14T04:50:55.932Z,999.48
2022-11-14T04:51:55.864Z,999.42
2022-11-14T04:52:55.808Z,999.45
2022-11-14T04:53:55.788Z,999.38
2022-11-14T04:54:55.745Z,999.38
2022-11-14T04:55:55.764Z,999.39
2022-11-14T04:56:55.758Z,999.36
2022-11-14T04:57:55.713Z,999.36
2022-11-14T04:58:55.717Z,999.33
2022-11-14T04:59:55.735Z,999.31
2022-11-14T05:00:55.810Z,999.29
2022-11-14T05:01:55.790Z,999.25
2022-11-14T05:02:56.728Z,999.31
2022-11-14T05:03:55.776Z,999.29
2022-11-14T05:04:55.668Z,999.29
2022-11-14T05:05:55.661Z,999.28
2022-11-14T05:06:55.760Z,999.26
2022-11-14T05:07:55.669Z,999.17
2022-11-14T05:08:55.664Z,999.21
2022-11-14T05:09:55.660Z,999.22
2022-11-14T05:10:55.620Z,999.15
2022-11-14T05:11:55.643Z,999.17
2022-11-14T05:12:55.679Z,999.16
2022-11-14T05:13:55.637Z,999.19
2022-11-14T05:14:55.596Z,999.16
2022-11-14T05:15:55.610Z,999.16
2022-11-14T05:16:55.573Z,999.09
2022-11-14T05:17:55.580Z,999.04
2022-11-14T05:18:55.624Z,999.02
2022-11-14T05:19:56.563Z,998.94
2022-11-14T05:20:55.585Z,999.00
2022-11-14T05:21:55.540Z,998.99
2022-11-14T05:22:55.545Z,998.98
2022-11-14T05:23:55.538Z,998.98
2022-11-14T05:24:55.524Z,998.95
2022-11-14T05:25:58.690Z,998.81
2022-11-14T05:26:56.517Z,998.86
2022-11-14T05:27:55.512Z,998.86
2022-11-14T05:28:55.484Z,998.80
2022-11-14T05:29:55.492Z,998.84
2022-11-14T05:30:55.519Z,998.72
2022-11-14T05:31:55.496Z,998.72
2022-11-14T05:32:56.252Z,998.69
2022-11-14T05:33:55.478Z,998.69
2022-11-14T05:34:55.495Z,998.67
2022-11-14T05:35:55.454Z,998.67
2022-11-14T05:36:55.440Z,998.74
2022-11-14T05:37:59.087Z,998.76
2022-11-14T05:38:56.428Z,998.82
2022-11-14T05:39:55.452Z,998.82
2022-11-14T05:40:55.408Z,998.87
2022-11-14T05:41:55.389Z,998.90
2022-11-14T05:42:55.503Z,998.89
2022-11-14T05:43:55.395Z,998.93
2022-11-14T05:44:56.376Z,998.95
2022-11-14T05:45:55.381Z,998.93
2022-11-14T05:46:55.373Z,998.96
2022-11-14T05:47:55.344Z,998.97
2022-11-14T05:48:55.340Z,998.95
2022-11-14T05:49:55.337Z,998.93
2022-11-14T05:50:56.370Z,998.97
2022-11-14T05:51:55.349Z,998.94
2022-11-14T05:52:55.306Z,999.00
2022-11-14T05:53:55.324Z,998.97
2022-11-14T05:54:55.294Z,999.00
2022-11-14T05:55:55.311Z,998.97
2022-11-14T05:56:55.266Z,998.94
2022-11-14T05:57:55.285Z,999.00
2022-11-14T05:58:55.289Z,998.95
2022-11-14T05:59:55.259Z,998.96
2022-11-14T06:00:55.290Z,998.98
2022-11-14T06:01:55.279Z,999.01
2022-11-14T06:02:55.212Z,998.97
2022-11-14T06:03:56.245Z,999.00
2022-11-14T06:04:55.210Z,999.03
2022-11-14T06:05:55.201Z,999.02
2022-11-14T06:06:55.260Z,999.03
2022-11-14T06:07:55.203Z,999.06
2022-11-14T06:08:55.192Z,998.99
2022-11-14T06:09:55.170Z,999.04
2022-11-14T06:10:56.241Z,999.02
2022-11-14T06:11:55.225Z,999.07
2022-11-14T06:12:55.181Z,999.05
2022-11-14T06:13:55.195Z,998.95
2022-11-14T06:14:55.181Z,998.96
2022-11-14T06:15:55.163Z,998.95
2022-11-14T06:16:55.145Z,998.97
2022-11-14T06:17:55.115Z,998.99
2022-11-14T06:18:55.116Z,999.00
2022-11-14T06:19:55.100Z,998.98
2022-11-14T06:20:55.144Z,998.95
2022-11-14T06:21:55.091Z,998.98
2022-11-14T06:22:55.092Z,998.98
2022-11-14T06:23:55.093Z,999.01
2022-11-14T06:24:55.068Z,999.03
2022-11-14T06:25:55.093Z,999.08
2022-11-14T06:26:55.046Z,999.10
2022-11-14T06:27:55.049Z,999.11
2022-11-14T06:28:55.064Z,999.01
2022-11-14T06:29:55.045Z,999.01
2022-11-14T06:30:55.130Z,999.04
2022-11-14T06:31:55.040Z,998.97
2022-11-14T06:32:55.052Z,999.04
2022-11-14T06:33:55.114Z,999.08
2022-11-14T06:34:55.032Z,999.14
2022-11-14T06:35:55.031Z,999.08
2022-11-14T06:36:55.017Z,999.14
2022-11-14T06:37:54.980Z,999.17
2022-11-14T06:38:54.982Z,999.17
2022-11-14T06:39:55.023Z,999.24
2022-11-14T06:40:54.971Z,999.17
2022-11-14T06:41:54.968Z,999.15
2022-11-14T06:42:54.941Z,999.15
2022-11-14T06:43:54.949Z,999.13
2022-11-14T06:44:54.970Z,999.11
2022-11-14T06:45:54.948Z,999.16
2022-11-14T06:46:54.885Z,999.23
2022-11-14T06:47:54.896Z,999.20
2022-11-14T06:48:54.887Z,999.16
2022-11-14T06:49:54.896Z,999.14
2022-11-14T06:50:54.881Z,999.13
2022-11-14T06:51:54.916Z,999.12
2022-11-14T06:52:54.891Z,999.11
2022-11-14T06:53:54.856Z,999.13
2022-11-14T06:54:54.841Z,999.16
2022-11-14T06:55:54.864Z,999.20
2022-11-14T06:56:54.847Z,999.21
2022-11-14T06:57:54.873Z,999.17
2022-11-14T06:58:54.803Z,999.14
2022-11-14T06:59:54.919Z,999.16
2022-11-14T07:00:54.804Z,999.17
2022-11-14T07:01:54.786Z,999.10
2022-11-14T07:02:54.911Z,999.16
2022-11-14T07:03:54.783Z,999.19
2022-11-14T07:04:54.754Z,999.19
2022-11-14T07:05:54.756Z,999.17
2022-11-14T07:06:54.822Z,999.23
2022-11-14T07:07:54.870Z,999.20
2022-11-14T07:08:54.723Z,999.22
2022-11-14T07:09:54.779Z,999.28
2022-11-14T07:10:54.714Z,999.29
2022-11-14T07:11:54.725Z,999.21
2022-11-14T07:12:54.741Z,999.24
2022-11-14T07:13:54.690Z,999.32
2022-11-14T07:14:54.700Z,999.32
2022-11-14T07:15:54.683Z,999.33
2022-11-14T07:16:54.690Z,999.34
2022-11-14T07:17:54.711Z,999.37
2022-11-14T07:18:54.666Z,999.28
2022-11-14T07:19:54.649Z,999.14
2022-11-14T07:20:54.625Z,999.26
2022-11-14T07:21:54.641Z,999.10
2022-11-14T07:22:54.634Z,998.93
2022-11-14T07:23:54.648Z,998.87
2022-11-14T07:24:54.639Z,998.86
2022-11-14T07:25:54.631Z,998.81
2022-11-14T07:26:54.602Z,998.84
2022-11-14T07:27:54.596Z,998.84
2022-11-14T07:29:00.719Z,998.79
2022-11-14T07:29:56.566Z,998.73
2022-11-14T07:30:54.584Z,998.70
2022-11-14T07:32:26.552Z,998.76
2022-11-14T07:32:54.620Z,998.75
2022-11-14T07:33:54.556Z,998.77
2022-11-14T07:34:59.224Z,998.84
2022-11-14T07:35:56.553Z,998.86
2022-11-14T07:36:54.546Z,998.90
2022-11-14T07:37:54.523Z,998.92
2022-11-14T07:38:54.526Z,998.93
2022-11-14T07:39:54.604Z,998.92
2022-11-14T07:40:59.333Z,998.94
2022-11-14T07:41:56.534Z,998.81
2022-11-14T07:42:54.483Z,998.80
2022-11-14T07:43:54.494Z,998.73
2022-11-14T07:44:54.464Z,998.80
2022-11-14T07:45:54.473Z,998.74
2022-11-14T07:46:54.464Z,998.85
2022-11-14T07:47:54.423Z,998.84
2022-11-14T07:48:54.452Z,998.89
2022-11-14T07:49:54.512Z,998.83
2022-11-14T07:50:54.429Z,998.87
2022-11-14T07:51:54.438Z,998.89
2022-11-14T07:52:54.420Z,998.89
2022-11-14T07:53:55.254Z,998.86
2022-11-14T07:54:54.380Z,998.89
2022-11-14T07:55:54.380Z,998.93
2022-11-14T07:56:54.435Z,998.94
2022-11-14T07:57:54.365Z,998.98
2022-11-14T07:58:54.374Z,998.99
2022-11-14T07:59:54.393Z,999.04
2022-11-14T08:00:54.376Z,998.97
2022-11-14T08:01:54.326Z,999.09
2022-11-14T08:02:54.346Z,999.07
2022-11-14T08:03:54.348Z,999.05
2022-11-14T08:04:54.345Z,999.00
2022-11-14T08:05:54.302Z,999.04
2022-11-14T08:06:54.446Z,999.09
2022-11-14T08:07:54.283Z,999.07
2022-11-14T08:08:54.276Z,999.04
2022-11-14T08:09:54.281Z,999.02
2022-11-14T08:10:54.274Z,998.97
2022-11-14T08:11:54.258Z,999.04
2022-11-14T08:13:10.805Z,998.97
2022-11-14T08:13:56.279Z,998.94
2022-11-14T08:15:26.190Z,998.91
2022-11-14T08:15:54.257Z,998.92
2022-11-14T08:16:54.247Z,998.97
2022-11-14T08:17:54.219Z,998.91
2022-11-14T08:18:54.239Z,998.92
2022-11-14T08:19:55.213Z,998.93
2022-11-14T08:20:54.201Z,998.85
2022-11-14T08:21:54.199Z,998.76
2022-11-14T08:22:54.184Z,998.70
2022-11-14T08:23:54.186Z,998.60
2022-11-14T08:24:54.204Z,998.51
2022-11-14T08:25:54.170Z,998.44
2022-11-14T08:26:54.169Z,998.39
2022-11-14T08:27:54.141Z,998.38
2022-11-14T08:28:54.131Z,998.26
2022-11-14T08:29:54.141Z,998.20
2022-11-14T08:30:54.105Z,998.07
2022-11-14T08:31:58.630Z,998.10
2022-11-14T08:32:56.088Z,998.12
2022-11-14T08:33:54.157Z,997.99
2022-11-14T08:34:54.187Z,997.91
2022-11-14T08:35:54.065Z,997.90
2022-11-14T08:36:54.085Z,997.83
2022-11-14T08:37:54.123Z,997.80
2022-11-14T08:38:58.908Z,997.87
2022-11-14T08:39:56.048Z,997.83
2022-11-14T08:40:54.052Z,997.75
2022-11-14T08:41:54.024Z,997.66
2022-11-14T08:42:54.096Z,997.63
2022-11-14T08:43:54.020Z,997.64
2022-11-14T08:44:54.027Z,997.64
2022-11-14T08:45:54.000Z,997.59
2022-11-14T08:46:53.980Z,997.47
2022-11-14T08:47:53.979Z,997.57
2022-11-14T08:48:54.009Z,997.60
2022-11-14T08:49:54.000Z,997.59
2022-11-14T08:50:53.945Z,997.49
2022-11-14T08:51:53.983Z,997.55
2022-11-14T08:52:53.935Z,997.47
2022-11-14T08:53:53.998Z,997.43
2022-11-14T08:54:53.918Z,997.44
2022-11-14T08:55:53.926Z,997.46
2022-11-14T08:56:53.931Z,997.49
2022-11-14T08:57:53.936Z,997.54
2022-11-14T08:58:54.655Z,997.41
2022-11-14T08:59:53.903Z,997.43
2022-11-14T09:00:53.928Z,997.37
2022-11-14T09:01:53.889Z,997.40
2022-11-14T09:02:53.931Z,997.40
2022-11-14T09:03:59.409Z,997.39
2022-11-14T09:04:56.850Z,997.36
2022-11-14T09:05:53.885Z,997.36
2022-11-14T09:06:53.927Z,997.31
2022-11-14T09:07:53.836Z,997.31
2022-11-14T09:08:53.839Z,997.27
2022-11-14T09:09:53.859Z,997.21
2022-11-14T09:10:53.858Z,997.13
2022-11-14T09:11:53.803Z,997.15
2022-11-14T09:12:53.791Z,997.04
2022-11-14T09:13:53.826Z,996.99
2022-11-14T09:14:53.803Z,996.86
2022-11-14T09:15:53.805Z,996.76
2022-11-14T09:16:53.780Z,996.82
2022-11-14T09:17:53.777Z,996.91
2022-11-14T09:18:53.749Z,996.93
2022-11-14T09:19:53.726Z,996.93
2022-11-14T09:20:54.951Z,997.00
2022-11-14T09:21:53.756Z,997.14
2022-11-14T09:22:53.739Z,997.22
2022-11-14T09:23:58.839Z,997.30
2022-11-14T09:24:56.311Z,997.34
2022-11-14T09:25:53.690Z,997.32
2022-11-14T09:26:57.059Z,997.27
2022-11-14T09:27:54.792Z,997.17
2022-11-14T09:28:53.691Z,997.08
2022-11-14T09:29:53.662Z,997.08
2022-11-14T09:30:53.662Z,997.04
2022-11-14T09:31:53.644Z,997.05
2022-11-14T09:32:53.634Z,997.14
2022-11-14T09:33:53.624Z,997.25
2022-11-14T09:34:53.622Z,997.25
2022-11-14T09:35:53.627Z,997.35
2022-11-14T09:36:53.610Z,997.38
2022-11-14T09:37:53.608Z,997.34
2022-11-14T09:38:53.602Z,997.24
2022-11-14T09:39:53.625Z,997.23
2022-11-14T09:40:53.635Z,997.27
2022-11-14T09:41:54.313Z,997.27
2022-11-14T09:42:53.568Z,997.27
2022-11-14T09:43:54.348Z,997.30
2022-11-14T09:44:53.555Z,997.26
2022-11-14T09:45:53.579Z,997.30
2022-11-14T09:46:53.550Z,997.34
2022-11-14T09:47:53.567Z,997.44
2022-11-14T09:48:53.537Z,997.44
2022-11-14T09:49:54.321Z,997.47
2022-11-14T09:50:53.526Z,997.53
2022-11-14T09:51:53.528Z,997.50
2022-11-14T09:52:53.526Z,997.61
2022-11-14T09:53:53.511Z,997.63
2022-11-14T09:54:53.552Z,997.57
2022-11-14T09:55:53.501Z,997.64
2022-11-14T09:56:53.517Z,997.62
2022-11-14T09:57:53.511Z,997.73
2022-11-14T09:58:53.521Z,997.77
2022-11-14T09:59:53.463Z,997.72
2022-11-14T10:00:53.437Z,997.63
2022-11-14T10:01:53.606Z,997.54
2022-11-14T10:02:53.440Z,997.47
2022-11-14T10:03:53.441Z,997.38
2022-11-14T10:04:53.904Z,997.32
2022-11-14T10:05:53.405Z,997.30
2022-11-14T10:06:53.411Z,997.38
2022-11-14T10:07:53.379Z,997.45
2022-11-14T10:08:53.386Z,997.48
2022-11-14T10:09:53.889Z,997.43
2022-11-14T10:10:53.365Z,997.45
2022-11-14T10:11:53.372Z,997.38
2022-11-14T10:12:53.858Z,997.34
2022-11-14T10:13:53.404Z,997.29
2022-11-14T10:14:53.354Z,997.24
2022-11-14T10:15:53.330Z,997.27
2022-11-14T10:16:53.428Z,997.26
2022-11-14T10:17:53.296Z,997.20
2022-11-14T10:18:53.307Z,997.21
2022-11-14T10:19:53.289Z,997.20
2022-11-14T10:20:53.298Z,997.16
2022-11-14T10:21:53.316Z,997.27
2022-11-14T10:22:56.180Z,997.20
2022-11-14T10:23:54.263Z,997.28
2022-11-14T10:24:53.273Z,997.22
2022-11-14T10:25:53.254Z,997.22
2022-11-14T10:26:53.281Z,997.28
2022-11-14T10:27:57.452Z,997.28
2022-11-14T10:28:55.210Z,997.32
2022-11-14T10:29:53.238Z,997.32
2022-11-14T10:30:53.192Z,997.28
2022-11-14T10:31:54.222Z,997.29
2022-11-14T10:32:53.216Z,997.31
2022-11-14T10:33:53.212Z,997.22
2022-11-14T10:34:53.218Z,997.26
2022-11-14T10:35:53.175Z,997.16
2022-11-14T10:36:53.148Z,997.29
2022-11-14T10:37:53.190Z,997.28
2022-11-14T10:38:53.140Z,997.24
2022-11-14T10:39:53.138Z,997.18
2022-11-14T10:40:53.116Z,997.17
2022-11-14T10:41:59.951Z,997.21
2022-11-14T10:42:55.219Z,997.24
2022-11-14T10:43:53.121Z,997.23
2022-11-14T10:44:53.105Z,997.27
2022-11-14T10:45:53.102Z,997.25
2022-11-14T10:46:53.091Z,997.28
2022-11-14T10:47:53.084Z,997.30
2022-11-14T10:48:56.267Z,997.40
2022-11-14T10:49:55.075Z,997.50
2022-11-14T10:50:53.057Z,997.56
2022-11-14T10:51:53.075Z,997.54
2022-11-14T10:52:53.051Z,997.58
2022-11-14T10:53:53.032Z,997.57
2022-11-14T10:54:53.030Z,997.58
2022-11-14T10:56:05.672Z,997.60
2022-11-14T10:56:55.008Z,997.59
2022-11-14T10:57:53.028Z,997.61
2022-11-14T10:58:52.994Z,997.53
2022-11-14T10:59:52.973Z,997.61
2022-11-14T11:00:53.012Z,997.61
2022-11-14T11:01:52.984Z,997.57
2022-11-14T11:02:52.952Z,997.55
2022-11-14T11:03:53.036Z,997.53
2022-11-14T11:04:52.999Z,997.44
2022-11-14T11:05:52.931Z,997.43
2022-11-14T11:06:52.985Z,997.45
2022-11-14T11:07:53.891Z,997.41
2022-11-14T11:08:52.969Z,997.36
2022-11-14T11:09:53.942Z,997.44
2022-11-14T11:10:52.937Z,997.40
2022-11-14T11:11:52.944Z,997.38
2022-11-14T11:12:52.882Z,997.39
2022-11-14T11:13:53.909Z,997.40
2022-11-14T11:14:52.882Z,997.44
2022-11-14T11:15:52.878Z,997.43
2022-11-14T11:16:52.854Z,997.40
2022-11-14T11:17:52.856Z,997.42
2022-11-14T11:18:52.861Z,997.49
2022-11-14T11:19:52.816Z,997.49
2022-11-14T11:20:53.898Z,997.54
2022-11-14T11:21:53.058Z,997.56
2022-11-14T11:22:52.831Z,997.61
2022-11-14T11:23:52.801Z,997.58
2022-11-14T11:24:52.829Z,997.55
2022-11-14T11:25:52.779Z,997.55
2022-11-14T11:26:52.844Z,997.53
2022-11-14T11:27:52.853Z,997.46
2022-11-14T11:28:52.792Z,997.46
2022-11-14T11:29:52.762Z,997.53
2022-11-14T11:30:54.447Z,997.48
2022-11-14T11:31:53.741Z,997.49
2022-11-14T11:32:52.765Z,997.41
2022-11-14T11:33:52.729Z,997.40
2022-11-14T11:34:52.732Z,997.37
2022-11-14T11:35:52.741Z,997.37
2022-11-14T11:36:52.730Z,997.45
2022-11-14T11:37:52.715Z,997.40
2022-11-14T11:38:52.741Z,997.33
2022-11-14T11:39:52.702Z,997.36
2022-11-14T11:40:52.665Z,997.27
2022-11-14T11:42:10.287Z,997.27
2022-11-14T11:43:36.625Z,997.28
2022-11-14T11:43:57.064Z,997.25
2022-11-14T11:44:53.684Z,997.22
2022-11-14T11:45:52.641Z,997.18
2022-11-14T11:46:52.670Z,997.16
2022-11-14T11:47:52.692Z,997.18
2022-11-14T11:48:52.615Z,997.18
2022-11-14T11:49:54.791Z,997.13
2022-11-14T11:50:53.629Z,997.17
2022-11-14T11:51:52.600Z,997.16
2022-11-14T11:52:52.587Z,997.19
2022-11-14T11:53:52.580Z,997.17
2022-11-14T11:54:52.586Z,997.21
2022-11-14T11:55:52.635Z,997.21
2022-11-14T11:56:52.594Z,997.13
2022-11-14T11:57:52.725Z,997.10
2022-11-14T11:58:52.584Z,997.08
2022-11-14T11:59:52.554Z,997.07
2022-11-14T12:00:52.606Z,997.03
2022-11-14T12:01:52.555Z,997.11
2022-11-14T12:02:52.685Z,997.01
2022-11-14T12:03:52.591Z,997.01
2022-11-14T12:04:52.513Z,997.03
2022-11-14T12:05:52.518Z,997.03
2022-11-14T12:06:52.550Z,996.98
2022-11-14T12:07:53.372Z,997.00
2022-11-14T12:08:52.479Z,997.02
2022-11-14T12:10:11.866Z,997.02
2022-11-14T12:10:54.509Z,997.02
2022-11-14T12:11:52.454Z,997.09
2022-11-14T12:12:52.462Z,997.01
2022-11-14T12:13:52.457Z,997.02
2022-11-14T12:14:52.423Z,997.07
2022-11-14T12:15:52.465Z,996.97
2022-11-14T12:16:52.449Z,997.00
2022-11-14T12:17:52.433Z,996.98
2022-11-14T12:18:52.412Z,997.07
2022-11-14T12:19:52.470Z,997.02
2022-11-14T12:20:52.491Z,996.98
2022-11-14T12:21:58.359Z,997.04
2022-11-14T12:22:54.389Z,997.00
2022-11-14T12:23:52.368Z,997.01
2022-11-14T12:24:52.380Z,997.00
2022-11-14T12:25:52.362Z,996.96
2022-11-14T12:26:52.344Z,996.98
2022-11-14T12:27:52.427Z,996.98
2022-11-14T12:28:52.343Z,996.89
2022-11-14T12:29:52.342Z,996.92
2022-11-14T12:30:52.328Z,996.88
2022-11-14T12:31:52.341Z,996.90
2022-11-14T12:33:24.220Z,996.92
2022-11-14T12:33:52.389Z,996.89
2022-11-14T12:35:24.438Z,996.96
2022-11-14T12:35:52.325Z,996.97
2022-11-14T12:36:52.327Z,997.03
2022-11-14T12:38:24.184Z,997.01
2022-11-14T12:38:52.421Z,997.13
2022-11-14T12:39:52.251Z,997.09
2022-11-14T12:40:52.281Z,997.10
2022-11-14T12:41:52.247Z,997.06
2022-11-14T12:42:52.226Z,997.05
2022-11-14T12:43:52.314Z,997.12
2022-11-14T12:45:24.136Z,997.13
2022-11-14T12:45:52.206Z,997.16
2022-11-14T12:46:52.209Z,997.21
2022-11-14T12:47:52.203Z,997.23
2022-11-14T12:48:52.207Z,997.25
2022-11-14T12:49:52.170Z,997.16
2022-11-14T12:50:52.193Z,997.14
2022-11-14T12:51:52.160Z,997.09
2022-11-14T12:52:52.183Z,997.07